sensor_id;sensor_type;location;lat;lon;timestamp;pressure;altitude;pressure_sealevel;temperature;humidity
18167;BME280;9208;42.688;23.404;2023-02-14T00:00:17;96940.16;;;1.59;100.00
18167;BME280;9208;42.688;23.404;2023-02-14T00:02:43;96944.41;;;1.60;100.00
18167;BME280;9208;42.688;23.404;2023-02-14T00:05:09;96930.88;;;1.50;100.00
18167;BME280;9208;42.688;23.404;2023-02-14T00:07:34;96924.34;;;1.54;100.00
18167;BME280;9208;42.688;23.404;2023-02-14T00:10:00;96919.31;;;1.49;100.00
18167;BME280;9208;42.688;23.404;2023-02-14T00:12:25;96936.28;;;1.46;100.00
18167;BME280;9208;42.688;23.404;2023-02-14T00:14:51;96928.94;;;1.50;100.00
18167;BME280;9208;42.688;23.404;2023-02-14T00:17:35;96933.16;;;1.34;100.00
18167;BME280;9208;42.688;23.404;2023-02-14T00:20:00;96936.59;;;1.24;100.00
18167;BME280;9208;42.688;23.404;2023-02-14T00:22:25;96938.53;;;1.30;100.00
18167;BME280;9208;42.688;23.404;2023-02-14T00:24:51;96932.75;;;1.32;100.00
18167;BME280;9208;42.688;23.404;2023-02-14T00:27:16;96940.91;;;1.39;100.00
18167;BME280;9208;42.688;23.404;2023-02-14T00:29:42;96936.66;;;1.41;100.00
18167;BME280;9208;42.688;23.404;2023-02-14T00:32:07;96929.72;;;1.44;100.00
18167;BME280;9208;42.688;23.404;2023-02-14T00:34:33;96919.31;;;1.49;100.00
18167;BME280;9208;42.688;23.404;2023-02-14T00:37:01;96921.22;;;1.45;100.00
18167;BME280;9208;42.688;23.404;2023-02-14T00:39:26;96924.34;;;1.51;100.00
18167;BME280;9208;42.688;23.404;2023-02-14T00:41:52;96926.22;;;1.33;100.00
18167;BME280;9208;42.688;23.404;2023-02-14T00:44:17;96925.03;;;1.23;100.00
18167;BME280;9208;42.688;23.404;2023-02-14T00:46:43;96927.69;;;1.13;100.00
18167;BME280;9208;42.688;23.404;2023-02-14T00:49:08;96922.69;;;1.18;100.00
18167;BME280;9208;42.688;23.404;2023-02-14T00:51:34;96921.16;;;1.28;100.00
18167;BME280;9208;42.688;23.404;2023-02-14T00:53:59;96908.84;;;1.37;100.00
18167;BME280;9208;42.688;23.404;2023-02-14T00:56:26;96895.34;;;1.41;100.00
18167;BME280;9208;42.688;23.404;2023-02-14T00:58:51;96906.94;;;1.59;100.00
18167;BME280;9208;42.688;23.404;2023-02-14T01:01:17;96898.06;;;1.55;100.00
18167;BME280;9208;42.688;23.404;2023-02-14T01:03:43;96897.31;;;1.54;100.00
18167;BME280;9208;42.688;23.404;2023-02-14T01:06:08;96898.44;;;1.50;100.00
18167;BME280;9208;42.688;23.404;2023-02-14T01:08:34;96896.91;;;1.49;100.00
18167;BME280;9208;42.688;23.404;2023-02-14T01:11:14;96893.03;;;1.46;100.00
18167;BME280;9208;42.688;23.404;2023-02-14T01:13:40;96896.13;;;1.48;100.00
18167;BME280;9208;42.688;23.404;2023-02-14T01:16:08;96899.22;;;1.57;100.00
18167;BME280;9208;42.688;23.404;2023-02-14T01:18:34;96892.31;;;1.63;100.00
18167;BME280;9208;42.688;23.404;2023-02-14T01:21:24;96889.59;;;1.70;100.00
18167;BME280;9208;42.688;23.404;2023-02-14T01:23:52;96881.88;;;1.86;100.00
18167;BME280;9208;42.688;23.404;2023-02-14T01:26:20;96876.09;;;1.98;100.00
18167;BME280;9208;42.688;23.404;2023-02-14T01:28:46;96878.00;;;2.08;100.00
18167;BME280;9208;42.688;23.404;2023-02-14T01:31:29;96880.69;;;2.26;100.00
18167;BME280;9208;42.688;23.404;2023-02-14T01:33:56;96877.16;;;2.36;100.00
18167;BME280;9208;42.688;23.404;2023-02-14T01:36:25;96861.69;;;2.50;100.00
18167;BME280;9208;42.688;23.404;2023-02-14T01:38:53;96857.03;;;2.61;100.00
18167;BME280;9208;42.688;23.404;2023-02-14T01:41:19;96843.81;;;2.74;100.00
18167;BME280;9208;42.688;23.404;2023-02-14T01:46:14;96847.19;;;2.95;100.00
18167;BME280;9208;42.688;23.404;2023-02-14T01:48:40;96847.16;;;3.06;100.00
18167;BME280;9208;42.688;23.404;2023-02-14T01:51:05;96860.25;;;3.14;100.00
18167;BME280;9208;42.688;23.404;2023-02-14T01:53:32;96842.78;;;3.22;100.00
18167;BME280;9208;42.688;23.404;2023-02-14T01:56:02;96845.47;;;3.26;100.00
18167;BME280;9208;42.688;23.404;2023-02-14T01:58:30;96838.91;;;3.23;100.00
18167;BME280;9208;42.688;23.404;2023-02-14T02:01:00;96840.91;;;3.19;100.00
18167;BME280;9208;42.688;23.404;2023-02-14T02:03:53;96849.41;;;3.14;100.00
18167;BME280;9208;42.688;23.404;2023-02-14T02:06:28;96842.09;;;3.08;100.00
18167;BME280;9208;42.688;23.404;2023-02-14T02:09:27;96842.94;;;3.01;100.00
18167;BME280;9208;42.688;23.404;2023-02-14T02:11:55;96844.84;;;3.01;100.00
18167;BME280;9208;42.688;23.404;2023-02-14T02:14:21;96851.88;;;2.88;100.00
18167;BME280;9208;42.688;23.404;2023-02-14T02:42:05;96798.41;;;2.06;100.00
18167;BME280;9208;42.688;23.404;2023-02-14T02:44:54;96804.59;;;1.99;100.00
18167;BME280;9208;42.688;23.404;2023-02-14T02:47:33;96800.75;;;1.97;100.00
18167;BME280;9208;42.688;23.404;2023-02-14T02:52:55;96795.38;;;1.83;100.00
18167;BME280;9208;42.688;23.404;2023-02-14T02:55:51;96809.66;;;1.80;100.00
18167;BME280;9208;42.688;23.404;2023-02-14T02:58:41;96816.22;;;1.72;100.00
18167;BME280;9208;42.688;23.404;2023-02-14T03:01:13;96823.19;;;1.66;100.00
18167;BME280;9208;42.688;23.404;2023-02-14T03:03:40;96816.22;;;1.58;100.00
18167;BME280;9208;42.688;23.404;2023-02-14T03:06:29;96808.09;;;1.47;100.00
18167;BME280;9208;42.688;23.404;2023-02-14T03:08:55;96816.22;;;1.40;100.00
18167;BME280;9208;42.688;23.404;2023-02-14T03:11:20;96811.19;;;1.32;100.00
18167;BME280;9208;42.688;23.404;2023-02-14T03:14:18;96823.53;;;1.26;100.00
18167;BME280;9208;42.688;23.404;2023-02-14T03:17:03;96820.44;;;1.24;100.00
18167;BME280;9208;42.688;23.404;2023-02-14T03:19:41;96810.81;;;1.33;100.00
18167;BME280;9208;42.688;23.404;2023-02-14T03:25:10;96801.56;;;1.55;100.00
18167;BME280;9208;42.688;23.404;2023-02-14T03:27:50;96798.06;;;1.62;100.00
18167;BME280;9208;42.688;23.404;2023-02-14T03:31:01;96781.09;;;1.68;100.00
18167;BME280;9208;42.688;23.404;2023-02-14T03:33:55;96783.75;;;1.75;100.00
18167;BME280;9208;42.688;23.404;2023-02-14T03:39:31;96784.53;;;1.76;100.00
18167;BME280;9208;42.688;23.404;2023-02-14T03:42:06;96783.00;;;1.85;100.00
18167;BME280;9208;42.688;23.404;2023-02-14T03:44:36;96780.28;;;1.78;100.00
18167;BME280;9208;42.688;23.404;2023-02-14T03:47:16;96771.41;;;1.81;100.00
18167;BME280;9208;42.688;23.404;2023-02-14T03:49:46;96777.56;;;1.82;100.00
18167;BME280;9208;42.688;23.404;2023-02-14T03:52:14;96765.22;;;1.91;100.00
18167;BME280;9208;42.688;23.404;2023-02-14T03:54:41;96767.13;;;2.01;100.00
18167;BME280;9208;42.688;23.404;2023-02-14T03:57:19;96754.38;;;2.02;100.00
18167;BME280;9208;42.688;23.404;2023-02-14T03:59:47;96753.97;;;2.00;100.00
18167;BME280;9208;42.688;23.404;2023-02-14T04:04:45;96752.84;;;2.01;100.00
18167;BME280;9208;42.688;23.404;2023-02-14T04:07:15;96750.88;;;2.01;100.00
18167;BME280;9208;42.688;23.404;2023-02-14T04:09:41;96738.53;;;2.07;100.00
18167;BME280;9208;42.688;23.404;2023-02-14T04:12:07;96747.34;;;2.22;100.00
18167;BME280;9208;42.688;23.404;2023-02-14T04:14:33;96741.16;;;2.25;100.00
18167;BME280;9208;42.688;23.404;2023-02-14T04:16:58;96751.13;;;2.38;100.00
18167;BME280;9208;42.688;23.404;2023-02-14T04:19:45;96756.91;;;2.47;100.00
18167;BME280;9208;42.688;23.404;2023-02-14T04:22:11;96749.88;;;2.60;100.00
18167;BME280;9208;42.688;23.404;2023-02-14T04:24:39;96743.28;;;2.65;100.00
18167;BME280;9208;42.688;23.404;2023-02-14T04:27:04;96744.00;;;2.76;100.00
18167;BME280;9208;42.688;23.404;2023-02-14T04:29:41;96737.81;;;2.79;100.00
18167;BME280;9208;42.688;23.404;2023-02-14T04:32:08;96737.00;;;2.85;100.00
18167;BME280;9208;42.688;23.404;2023-02-14T04:34:34;96740.03;;;2.94;100.00
18167;BME280;9208;42.688;23.404;2023-02-14T04:37:00;96741.13;;;3.04;100.00
18167;BME280;9208;42.688;23.404;2023-02-14T04:39:26;96735.25;;;3.12;100.00
18167;BME280;9208;42.688;23.404;2023-02-14T04:41:52;96735.22;;;3.19;100.00
18167;BME280;9208;42.688;23.404;2023-02-14T04:44:17;96726.34;;;3.15;100.00
18167;BME280;9208;42.688;23.404;2023-02-14T04:46:45;96722.78;;;3.25;100.00
18167;BME280;9208;42.688;23.404;2023-02-14T04:49:11;96716.19;;;3.26;100.00
18167;BME280;9208;42.688;23.404;2023-02-14T04:51:36;96728.94;;;3.29;100.00
18167;BME280;9208;42.688;23.404;2023-02-14T04:54:02;96720.38;;;3.34;100.00
18167;BME280;9208;42.688;23.404;2023-02-14T04:56:27;96717.72;;;3.31;100.00
18167;BME280;9208;42.688;23.404;2023-02-14T04:58:53;96715.75;;;3.31;100.00
18167;BME280;9208;42.688;23.404;2023-02-14T05:01:19;96726.16;;;3.40;100.00
18167;BME280;9208;42.688;23.404;2023-02-14T05:03:44;96719.16;;;3.42;100.00
18167;BME280;9208;42.688;23.404;2023-02-14T05:06:10;96729.56;;;3.47;100.00
18167;BME280;9208;42.688;23.404;2023-02-14T05:08:35;96722.94;;;3.52;100.00
18167;BME280;9208;42.688;23.404;2023-02-14T05:11:01;96719.84;;;3.50;100.00
18167;BME280;9208;42.688;23.404;2023-02-14T05:13:26;96724.75;;;3.62;100.00
18167;BME280;9208;42.688;23.404;2023-02-14T05:15:52;96717.88;;;3.54;100.00
18167;BME280;9208;42.688;23.404;2023-02-14T05:18:18;96713.59;;;3.56;100.00
18167;BME280;9208;42.688;23.404;2023-02-14T05:20:43;96723.28;;;3.57;100.00
18167;BME280;9208;42.688;23.404;2023-02-14T05:23:09;96721.75;;;3.56;100.00
18167;BME280;9208;42.688;23.404;2023-02-14T05:25:40;96721.66;;;3.67;100.00
18167;BME280;9208;42.688;23.404;2023-02-14T05:28:05;96719.31;;;3.65;100.00
18167;BME280;9208;42.688;23.404;2023-02-14T05:30:31;96717.78;;;3.64;100.00
18167;BME280;9208;42.688;23.404;2023-02-14T05:32:56;96728.59;;;3.68;99.91
18167;BME280;9208;42.688;23.404;2023-02-14T05:35:22;96722.06;;;3.62;99.70
18167;BME280;9208;42.688;23.404;2023-02-14T05:37:47;96721.22;;;3.68;99.51
18167;BME280;9208;42.688;23.404;2023-02-14T05:40:13;96722.34;;;3.71;99.04
18167;BME280;9208;42.688;23.404;2023-02-14T05:42:41;96716.19;;;3.70;99.14
18167;BME280;9208;42.688;23.404;2023-02-14T05:45:06;96702.22;;;3.68;98.77
18167;BME280;9208;42.688;23.404;2023-02-14T05:47:32;96711.81;;;3.80;98.10
18167;BME280;9208;42.688;23.404;2023-02-14T05:49:57;96718.41;;;3.82;98.18
18167;BME280;9208;42.688;23.404;2023-02-14T05:52:23;96717.56;;;3.85;97.90
18167;BME280;9208;42.688;23.404;2023-02-14T05:54:48;96716.03;;;3.84;97.62
18167;BME280;9208;42.688;23.404;2023-02-14T05:57:14;96723.00;;;3.85;97.39
18167;BME280;9208;42.688;23.404;2023-02-14T05:59:39;96723.38;;;3.84;97.36
18167;BME280;9208;42.688;23.404;2023-02-14T06:02:05;96716.38;;;3.86;97.72
18167;BME280;9208;42.688;23.404;2023-02-14T06:04:30;96716.72;;;3.92;97.61
18167;BME280;9208;42.688;23.404;2023-02-14T06:06:55;96725.19;;;3.97;97.70
18167;BME280;9208;42.688;23.404;2023-02-14T06:09:21;96722.88;;;3.96;97.59
18167;BME280;9208;42.688;23.404;2023-02-14T06:11:47;96734.03;;;4.05;96.91
18167;BME280;9208;42.688;23.404;2023-02-14T06:14:12;96735.53;;;4.09;96.21
18167;BME280;9208;42.688;23.404;2023-02-14T06:16:38;96730.13;;;4.06;96.27
18167;BME280;9208;42.688;23.404;2023-02-14T06:19:03;96730.97;;;3.99;96.83
18167;BME280;9208;42.688;23.404;2023-02-14T06:21:29;96732.16;;;3.98;97.53
18167;BME280;9208;42.688;23.404;2023-02-14T06:23:54;96731.72;;;4.03;97.41
18167;BME280;9208;42.688;23.404;2023-02-14T06:26:20;96742.13;;;4.08;96.90
18167;BME280;9208;42.688;23.404;2023-02-14T06:28:45;96738.25;;;4.09;97.75
18167;BME280;9208;42.688;23.404;2023-02-14T06:31:15;96740.88;;;4.16;97.36
18167;BME280;9208;42.688;23.404;2023-02-14T06:33:41;96736.13;;;4.24;96.60
18167;BME280;9208;42.688;23.404;2023-02-14T06:36:08;96739.97;;;4.26;96.53
18167;BME280;9208;42.688;23.404;2023-02-14T06:38:33;96732.66;;;4.23;97.78
18167;BME280;9208;42.688;23.404;2023-02-14T06:41:03;96737.28;;;4.26;97.88
18167;BME280;9208;42.688;23.404;2023-02-14T06:43:29;96736.19;;;4.20;98.22
18167;BME280;9208;42.688;23.404;2023-02-14T06:45:54;96741.84;;;4.33;97.82
18167;BME280;9208;42.688;23.404;2023-02-14T06:48:19;96736.78;;;4.35;97.50
18167;BME280;9208;42.688;23.404;2023-02-14T06:50:45;96731.66;;;4.40;97.95
18167;BME280;9208;42.688;23.404;2023-02-14T06:53:11;96728.88;;;4.47;97.33
18167;BME280;9208;42.688;23.404;2023-02-14T06:55:36;96730.06;;;4.46;97.52
18167;BME280;9208;42.688;23.404;2023-02-14T06:58:02;96717.22;;;4.50;97.12
18167;BME280;9208;42.688;23.404;2023-02-14T07:00:27;96720.69;;;4.51;97.00
18167;BME280;9208;42.688;23.404;2023-02-14T07:02:53;96723.00;;;4.52;97.39
18167;BME280;9208;42.688;23.404;2023-02-14T07:05:18;96718.38;;;4.49;98.35
18167;BME280;9208;42.688;23.404;2023-02-14T07:07:44;96706.25;;;4.57;98.04
18167;BME280;9208;42.688;23.404;2023-02-14T07:10:09;96697.44;;;4.50;98.98
18167;BME280;9208;42.688;23.404;2023-02-14T07:12:35;96704.38;;;4.54;99.30
18167;BME280;9208;42.688;23.404;2023-02-14T07:15:06;96714.38;;;4.61;99.13
18167;BME280;9208;42.688;23.404;2023-02-14T07:17:32;96712.72;;;4.67;99.43
18167;BME280;9208;42.688;23.404;2023-02-14T07:19:58;96718.09;;;4.70;99.98
18167;BME280;9208;42.688;23.404;2023-02-14T07:22:23;96727.38;;;4.73;99.93
18167;BME280;9208;42.688;23.404;2023-02-14T07:24:49;96718.00;;;4.77;100.00
18167;BME280;9208;42.688;23.404;2023-02-14T07:27:14;96710.94;;;4.83;100.00
18167;BME280;9208;42.688;23.404;2023-02-14T07:29:40;96725.31;;;4.84;100.00
18167;BME280;9208;42.688;23.404;2023-02-14T07:32:05;96716.28;;;4.90;100.00
18167;BME280;9208;42.688;23.404;2023-02-14T07:34:31;96717.03;;;4.91;100.00
18167;BME280;9208;42.688;23.404;2023-02-14T07:36:57;96720.59;;;4.88;100.00
18167;BME280;9208;42.688;23.404;2023-02-14T07:39:22;96722.84;;;4.93;100.00
18167;BME280;9208;42.688;23.404;2023-02-14T07:41:48;96719.66;;;4.98;100.00
18167;BME280;9208;42.688;23.404;2023-02-14T07:44:13;96712.25;;;4.98;100.00
18167;BME280;9208;42.688;23.404;2023-02-14T07:46:39;96721.25;;;4.95;100.00
18167;BME280;9208;42.688;23.404;2023-02-14T07:49:07;96723.91;;;4.99;100.00
18167;BME280;9208;42.688;23.404;2023-02-14T07:51:36;96735.56;;;4.99;100.00
18167;BME280;9208;42.688;23.404;2023-02-14T07:54:01;96737.91;;;4.97;100.00
18167;BME280;9208;42.688;23.404;2023-02-14T07:56:26;96735.50;;;5.03;100.00
18167;BME280;9208;42.688;23.404;2023-02-14T07:58:55;96749.91;;;5.00;100.00
18167;BME280;9208;42.688;23.404;2023-02-14T08:01:20;96746.00;;;5.01;100.00
18167;BME280;9208;42.688;23.404;2023-02-14T08:03:46;96747.03;;;5.10;100.00
18167;BME280;9208;42.688;23.404;2023-02-14T08:06:17;96745.91;;;5.08;100.00
18167;BME280;9208;42.688;23.404;2023-02-14T08:08:44;96751.66;;;5.13;100.00
18167;BME280;9208;42.688;23.404;2023-02-14T08:11:10;96750.47;;;5.14;100.00
18167;BME280;9208;42.688;23.404;2023-02-14T08:13:35;96743.91;;;5.12;100.00
18167;BME280;9208;42.688;23.404;2023-02-14T08:16:01;96746.97;;;5.14;100.00
18167;BME280;9208;42.688;23.404;2023-02-14T08:18:38;96760.16;;;5.15;100.00
18167;BME280;9208;42.688;23.404;2023-02-14T08:21:05;96763.28;;;5.14;100.00
18167;BME280;9208;42.688;23.404;2023-02-14T08:23:31;96767.56;;;5.15;100.00
18167;BME280;9208;42.688;23.404;2023-02-14T08:25:57;96759.81;;;5.13;100.00
18167;BME280;9208;42.688;23.404;2023-02-14T08:28:24;96766.78;;;5.14;100.00
18167;BME280;9208;42.688;23.404;2023-02-14T08:30:50;96761.88;;;5.06;100.00
18167;BME280;9208;42.688;23.404;2023-02-14T08:33:16;96752.47;;;5.10;100.00
18167;BME280;9208;42.688;23.404;2023-02-14T08:35:42;96741.53;;;5.14;100.00
18167;BME280;9208;42.688;23.404;2023-02-14T08:38:09;96743.03;;;5.18;100.00
18167;BME280;9208;42.688;23.404;2023-02-14T08:40:34;96740.66;;;5.20;100.00
18167;BME280;9208;42.688;23.404;2023-02-14T08:43:02;96749.53;;;5.24;100.00
18167;BME280;9208;42.688;23.404;2023-02-14T08:45:28;96764.50;;;5.36;100.00
18167;BME280;9208;42.688;23.404;2023-02-14T08:47:53;96760.25;;;5.35;100.00
18167;BME280;9208;42.688;23.404;2023-02-14T08:50:19;96765.22;;;5.40;100.00
18167;BME280;9208;42.688;23.404;2023-02-14T08:52:44;96764.56;;;5.32;100.00
18167;BME280;9208;42.688;23.404;2023-02-14T08:55:11;96773.06;;;5.34;100.00
18167;BME280;9208;42.688;23.404;2023-02-14T08:57:38;96771.53;;;5.33;100.00
18167;BME280;9208;42.688;23.404;2023-02-14T09:00:05;96766.56;;;5.28;100.00
18167;BME280;9208;42.688;23.404;2023-02-14T09:02:30;96778.88;;;5.36;100.00
18167;BME280;9208;42.688;23.404;2023-02-14T09:04:56;96757.63;;;5.28;100.00
18167;BME280;9208;42.688;23.404;2023-02-14T09:07:21;96771.66;;;5.26;100.00
18167;BME280;9208;42.688;23.404;2023-02-14T09:09:47;96756.94;;;5.24;100.00
18167;BME280;9208;42.688;23.404;2023-02-14T09:12:12;96761.59;;;5.23;100.00
18167;BME280;9208;42.688;23.404;2023-02-14T09:14:40;96743.63;;;5.29;100.00
18167;BME280;9208;42.688;23.404;2023-02-14T09:17:08;96740.56;;;5.27;100.00
18167;BME280;9208;42.688;23.404;2023-02-14T09:19:35;96740.91;;;5.29;100.00
18167;BME280;9208;42.688;23.404;2023-02-14T09:22:02;96748.78;;;5.24;100.00
18167;BME280;9208;42.688;23.404;2023-02-14T09:24:29;96736.31;;;5.26;100.00
18167;BME280;9208;42.688;23.404;2023-02-14T09:26:55;96742.50;;;5.27;100.00
18167;BME280;9208;42.688;23.404;2023-02-14T09:29:24;96752.97;;;5.28;100.00
18167;BME280;9208;42.688;23.404;2023-02-14T09:31:55;96754.03;;;5.34;100.00
18167;BME280;9208;42.688;23.404;2023-02-14T09:34:21;96752.00;;;5.42;100.00
18167;BME280;9208;42.688;23.404;2023-02-14T09:37:05;96739.28;;;5.35;100.00
18167;BME280;9208;42.688;23.404;2023-02-14T09:39:30;96738.75;;;5.44;100.00
18167;BME280;9208;42.688;23.404;2023-02-14T09:42:17;96732.72;;;5.33;100.00
18167;BME280;9208;42.688;23.404;2023-02-14T09:45:05;96734.31;;;5.30;100.00
18167;BME280;9208;42.688;23.404;2023-02-14T09:47:56;96730.03;;;5.29;100.00
18167;BME280;9208;42.688;23.404;2023-02-14T09:50:24;96728.88;;;5.30;100.00
18167;BME280;9208;42.688;23.404;2023-02-14T09:52:56;96734.34;;;5.27;100.00
18167;BME280;9208;42.688;23.404;2023-02-14T09:55:25;96734.41;;;5.23;100.00
18167;BME280;9208;42.688;23.404;2023-02-14T09:58:14;96722.00;;;5.22;100.00
18167;BME280;9208;42.688;23.404;2023-02-14T10:00:45;96724.31;;;5.24;100.00
18167;BME280;9208;42.688;23.404;2023-02-14T10:08:59;96722.34;;;5.24;100.00
18167;BME280;9208;42.688;23.404;2023-02-14T10:11:27;96719.69;;;5.21;100.00
18167;BME280;9208;42.688;23.404;2023-02-14T10:14:14;96726.91;;;5.31;100.00
18167;BME280;9208;42.688;23.404;2023-02-14T10:16:55;96709.78;;;5.34;100.00
18167;BME280;9208;42.688;23.404;2023-02-14T10:19:45;96709.88;;;5.27;100.00
18167;BME280;9208;42.688;23.404;2023-02-14T10:22:17;96714.97;;;5.25;100.00
18167;BME280;9208;42.688;23.404;2023-02-14T10:25:05;96713.38;;;5.27;100.00
18167;BME280;9208;42.688;23.404;2023-02-14T10:27:36;96710.66;;;5.27;100.00
18167;BME280;9208;42.688;23.404;2023-02-14T10:30:22;96710.00;;;5.20;100.00
18167;BME280;9208;42.688;23.404;2023-02-14T10:33:15;96704.16;;;5.21;100.00
18167;BME280;9208;42.688;23.404;2023-02-14T10:35:52;96705.56;;;5.29;100.00
18167;BME280;9208;42.688;23.404;2023-02-14T10:38:55;96712.19;;;5.28;100.00
18167;BME280;9208;42.688;23.404;2023-02-14T10:54:24;96700.03;;;5.36;100.00
18167;BME280;9208;42.688;23.404;2023-02-14T10:59:56;96691.94;;;5.33;100.00
18167;BME280;9208;42.688;23.404;2023-02-14T11:02:43;96697.72;;;5.35;100.00
18167;BME280;9208;42.688;23.404;2023-02-14T11:05:34;96690.03;;;5.30;100.00
18167;BME280;9208;42.688;23.404;2023-02-14T11:08:01;96698.19;;;5.30;100.00
18167;BME280;9208;42.688;23.404;2023-02-14T11:10:30;96696.00;;;5.21;100.00
18167;BME280;9208;42.688;23.404;2023-02-14T11:12:58;96691.00;;;5.16;100.00
18167;BME280;9208;42.688;23.404;2023-02-14T11:15:31;96692.63;;;5.14;100.00
18167;BME280;9208;42.688;23.404;2023-02-14T11:20:59;96692.50;;;5.21;100.00
18167;BME280;9208;42.688;23.404;2023-02-14T11:23:31;96691.38;;;5.18;100.00
18167;BME280;9208;42.688;23.404;2023-02-14T11:25:57;96681.25;;;5.19;100.00
18167;BME280;9208;42.688;23.404;2023-02-14T11:28:25;96682.75;;;5.23;100.00
18167;BME280;9208;42.688;23.404;2023-02-14T11:30:53;96669.06;;;5.30;100.00
18167;BME280;9208;42.688;23.404;2023-02-14T11:33:37;96681.56;;;5.24;98.87
18167;BME280;9208;42.688;23.404;2023-02-14T11:36:09;96675.31;;;5.27;97.45
18167;BME280;9208;42.688;23.404;2023-02-14T11:38:37;96681.47;;;5.31;96.85
18167;BME280;9208;42.688;23.404;2023-02-14T11:41:07;96676.78;;;5.32;97.31
18167;BME280;9208;42.688;23.404;2023-02-14T11:43:38;96663.63;;;5.30;97.02
18167;BME280;9208;42.688;23.404;2023-02-14T11:49:05;96655.03;;;5.32;95.68
18167;BME280;9208;42.688;23.404;2023-02-14T11:51:35;96652.19;;;5.39;95.65
18167;BME280;9208;42.688;23.404;2023-02-14T11:54:04;96643.50;;;5.47;94.97
18167;BME280;9208;42.688;23.404;2023-02-14T11:56:48;96645.47;;;5.47;95.57
18167;BME280;9208;42.688;23.404;2023-02-14T11:59:39;96648.91;;;5.51;92.96
18167;BME280;9208;42.688;23.404;2023-02-14T12:02:30;96638.28;;;5.56;92.61
18167;BME280;9208;42.688;23.404;2023-02-14T12:05:16;96630.19;;;5.53;92.12
18167;BME280;9208;42.688;23.404;2023-02-14T12:07:45;96628.75;;;5.48;92.05
18167;BME280;9208;42.688;23.404;2023-02-14T12:12:56;96610.66;;;5.58;91.72
18167;BME280;9208;42.688;23.404;2023-02-14T12:18:19;96623.75;;;5.66;90.81
18167;BME280;9208;42.688;23.404;2023-02-14T12:21:09;96618.00;;;5.61;91.10
18167;BME280;9208;42.688;23.404;2023-02-14T12:23:42;96624.06;;;5.68;90.97
18167;BME280;9208;42.688;23.404;2023-02-14T12:29:17;96621.66;;;5.74;90.67
18167;BME280;9208;42.688;23.404;2023-02-14T12:31:45;96616.25;;;5.70;89.96
18167;BME280;9208;42.688;23.404;2023-02-14T12:34:15;96619.19;;;5.79;90.15
18167;BME280;9208;42.688;23.404;2023-02-14T12:42:41;96611.09;;;5.76;89.50
18167;BME280;9208;42.688;23.404;2023-02-14T12:48:18;96612.47;;;5.87;88.47
18167;BME280;9208;42.688;23.404;2023-02-14T12:54:07;96610.50;;;5.88;88.79
18167;BME280;9208;42.688;23.404;2023-02-14T12:56:52;96606.69;;;5.85;89.51
18167;BME280;9208;42.688;23.404;2023-02-14T12:59:41;96605.41;;;5.90;89.86
18167;BME280;9208;42.688;23.404;2023-02-14T13:05:18;96599.28;;;5.86;89.60
18167;BME280;9208;42.688;23.404;2023-02-14T13:10:39;96615.75;;;5.98;89.00
18167;BME280;9208;42.688;23.404;2023-02-14T13:13:20;96601.03;;;5.96;89.48
18167;BME280;9208;42.688;23.404;2023-02-14T13:16:21;96595.91;;;5.98;89.45
18167;BME280;9208;42.688;23.404;2023-02-14T13:21:25;96590.69;;;5.87;90.48
18167;BME280;9208;42.688;23.404;2023-02-14T13:24:13;96588.13;;;5.80;91.71
18167;BME280;9208;42.688;23.404;2023-02-14T13:26:41;96580.22;;;5.86;91.02
18167;BME280;9208;42.688;23.404;2023-02-14T13:29:19;96578.28;;;5.86;91.79
18167;BME280;9208;42.688;23.404;2023-02-14T13:31:51;96578.63;;;5.88;91.72
18167;BME280;9208;42.688;23.404;2023-02-14T13:34:27;96583.22;;;5.91;92.16
18167;BME280;9208;42.688;23.404;2023-02-14T13:36:56;96578.97;;;5.90;92.60
18167;BME280;9208;42.688;23.404;2023-02-14T13:48:17;96579.66;;;5.94;93.12
18167;BME280;9208;42.688;23.404;2023-02-14T13:50:57;96581.69;;;5.90;93.53
18167;BME280;9208;42.688;23.404;2023-02-14T13:53:40;96588.25;;;5.93;93.09
18167;BME280;9208;42.688;23.404;2023-02-14T13:58:47;96590.91;;;5.96;92.96
18167;BME280;9208;42.688;23.404;2023-02-14T14:03:58;96604.00;;;6.01;92.59
18167;BME280;9208;42.688;23.404;2023-02-14T14:06:25;96598.16;;;6.03;92.74
18167;BME280;9208;42.688;23.404;2023-02-14T14:09:11;96605.31;;;6.13;91.65
18167;BME280;9208;42.688;23.404;2023-02-14T14:16:55;96591.59;;;6.00;93.45
18167;BME280;9208;42.688;23.404;2023-02-14T14:22:01;96594.03;;;5.95;93.31
18167;BME280;9208;42.688;23.404;2023-02-14T14:24:29;96595.50;;;5.99;93.13
18167;BME280;9208;42.688;23.404;2023-02-14T14:26:59;96587.44;;;5.96;93.34
18167;BME280;9208;42.688;23.404;2023-02-14T14:29:29;96584.75;;;5.92;94.19
18167;BME280;9208;42.688;23.404;2023-02-14T14:31:55;96575.34;;;5.97;93.30
18167;BME280;9208;42.688;23.404;2023-02-14T14:34:23;96566.25;;;6.03;92.37
18167;BME280;9208;42.688;23.404;2023-02-14T14:37:00;96561.22;;;6.02;92.54
18167;BME280;9208;42.688;23.404;2023-02-14T14:39:28;96565.84;;;6.05;93.03
18167;BME280;9208;42.688;23.404;2023-02-14T14:41:55;96556.97;;;6.01;92.57
18167;BME280;9208;42.688;23.404;2023-02-14T14:44:21;96566.25;;;6.03;93.27
18167;BME280;9208;42.688;23.404;2023-02-14T14:46:47;96572.03;;;6.05;92.53
18167;BME280;9208;42.688;23.404;2023-02-14T14:49:17;96572.91;;;6.02;92.58
18167;BME280;9208;42.688;23.404;2023-02-14T14:51:47;96569.22;;;6.09;92.42
18167;BME280;9208;42.688;23.404;2023-02-14T14:54:15;96571.97;;;6.09;91.94
18167;BME280;9208;42.688;23.404;2023-02-14T14:56:54;96572.91;;;6.02;92.08
18167;BME280;9208;42.688;23.404;2023-02-14T14:59:29;96570.50;;;6.04;92.94
18167;BME280;9208;42.688;23.404;2023-02-14T15:01:55;96573.22;;;6.04;92.84
18167;BME280;9208;42.688;23.404;2023-02-14T15:04:27;96577.50;;;6.05;92.43
18167;BME280;9208;42.688;23.404;2023-02-14T15:06:55;96580.91;;;6.09;92.26
18167;BME280;9208;42.688;23.404;2023-02-14T15:09:30;96577.06;;;6.07;92.46
18167;BME280;9208;42.688;23.404;2023-02-14T15:11:57;96582.50;;;6.07;92.31
18167;BME280;9208;42.688;23.404;2023-02-14T15:14:46;96574.34;;;6.07;92.68
18167;BME280;9208;42.688;23.404;2023-02-14T15:17:24;96580.28;;;6.02;91.83
18167;BME280;9208;42.688;23.404;2023-02-14T15:20:06;96590.06;;;5.99;92.69